sensor_id;sensor_type;location;lat;lon;timestamp;P1;durP1;ratioP1;P2;durP2;ratioP2
64208;SDS011;50527;52.414;13.226;2022-11-22T00:01:09;6.20;;;1.50;;
64208;SDS011;50527;52.414;13.226;2022-11-22T00:03:35;2.97;;;1.60;;
64208;SDS011;50527;52.414;13.226;2022-11-22T00:06:00;6.43;;;1.92;;
64208;SDS011;50527;52.414;13.226;2022-11-22T00:08:26;5.88;;;2.35;;
64208;SDS011;50527;52.414;13.226;2022-11-22T00:10:51;6.18;;;2.28;;
64208;SDS011;50527;52.414;13.226;2022-11-22T00:13:17;4.80;;;1.88;;
64208;SDS011;50527;52.414;13.226;2022-11-22T00:15:43;4.10;;;2.20;;
64208;SDS011;50527;52.414;13.226;2022-11-22T00:18:09;4.68;;;2.22;;
64208;SDS011;50527;52.414;13.226;2022-11-22T00:20:35;8.68;;;2.08;;
64208;SDS011;50527;52.414;13.226;2022-11-22T00:23:01;6.60;;;2.25;;
64208;SDS011;50527;52.414;13.226;2022-11-22T00:25:27;5.65;;;2.08;;
64208;SDS011;50527;52.414;13.226;2022-11-22T00:27:52;6.15;;;1.95;;
64208;SDS011;50527;52.414;13.226;2022-11-22T00:30:18;3.60;;;1.58;;
64208;SDS011;50527;52.414;13.226;2022-11-22T00:32:43;4.95;;;2.17;;
64208;SDS011;50527;52.414;13.226;2022-11-22T00:35:09;5.15;;;2.13;;
64208;SDS011;50527;52.414;13.226;2022-11-22T00:37:35;4.47;;;1.85;;
64208;SDS011;50527;52.414;13.226;2022-11-22T00:40:01;3.67;;;1.98;;
64208;SDS011;50527;52.414;13.226;2022-11-22T00:42:26;5.80;;;1.75;;
64208;SDS011;50527;52.414;13.226;2022-11-22T00:44:52;4.85;;;1.83;;
64208;SDS011;50527;52.414;13.226;2022-11-22T00:47:17;2.15;;;1.15;;
64208;SDS011;50527;52.414;13.226;2022-11-22T00:49:43;5.18;;;2.63;;
64208;SDS011;50527;52.414;13.226;2022-11-22T00:52:08;5.20;;;2.05;;
64208;SDS011;50527;52.414;13.226;2022-11-22T00:54:34;6.15;;;2.13;;
64208;SDS011;50527;52.414;13.226;2022-11-22T00:56:59;6.90;;;2.70;;
64208;SDS011;50527;52.414;13.226;2022-11-22T00:59:24;5.97;;;2.00;;
64208;SDS011;50527;52.414;13.226;2022-11-22T01:01:50;5.68;;;1.70;;
64208;SDS011;50527;52.414;13.226;2022-11-22T01:04:15;5.55;;;2.00;;
64208;SDS011;50527;52.414;13.226;2022-11-22T01:06:41;3.95;;;1.50;;
64208;SDS011;50527;52.414;13.226;2022-11-22T01:09:06;6.93;;;1.92;;
64208;SDS011;50527;52.414;13.226;2022-11-22T01:11:32;4.35;;;2.25;;
64208;SDS011;50527;52.414;13.226;2022-11-22T01:13:57;5.60;;;1.88;;
64208;SDS011;50527;52.414;13.226;2022-11-22T01:16:23;4.35;;;1.75;;
64208;SDS011;50527;52.414;13.226;2022-11-22T01:18:48;8.68;;;2.65;;
64208;SDS011;50527;52.414;13.226;2022-11-22T01:21:14;3.95;;;2.10;;
64208;SDS011;50527;52.414;13.226;2022-11-22T01:23:39;5.68;;;1.92;;
64208;SDS011;50527;52.414;13.226;2022-11-22T01:26:05;6.20;;;2.40;;
64208;SDS011;50527;52.414;13.226;2022-11-22T01:28:33;7.85;;;2.00;;
64208;SDS011;50527;52.414;13.226;2022-11-22T01:30:59;5.40;;;2.17;;
64208;SDS011;50527;52.414;13.226;2022-11-22T01:33:24;4.05;;;1.80;;
64208;SDS011;50527;52.414;13.226;2022-11-22T01:35:49;6.40;;;2.70;;
64208;SDS011;50527;52.414;13.226;2022-11-22T01:38:15;9.90;;;2.25;;
64208;SDS011;50527;52.414;13.226;2022-11-22T01:40:41;6.07;;;2.20;;
64208;SDS011;50527;52.414;13.226;2022-11-22T01:43:19;6.60;;;2.35;;
64208;SDS011;50527;52.414;13.226;2022-11-22T01:45:48;5.93;;;2.03;;
64208;SDS011;50527;52.414;13.226;2022-11-22T01:50:55;5.82;;;2.28;;
64208;SDS011;50527;52.414;13.226;2022-11-22T01:53:28;5.57;;;2.22;;
64208;SDS011;50527;52.414;13.226;2022-11-22T01:56:02;4.13;;;1.67;;
64208;SDS011;50527;52.414;13.226;2022-11-22T01:58:32;4.97;;;2.35;;
64208;SDS011;50527;52.414;13.226;2022-11-22T02:00:58;7.88;;;2.88;;
64208;SDS011;50527;52.414;13.226;2022-11-22T02:03:25;2.53;;;0.80;;
64208;SDS011;50527;52.414;13.226;2022-11-22T02:05:53;7.55;;;2.33;;
64208;SDS011;50527;52.414;13.226;2022-11-22T02:11:07;3.75;;;1.67;;
64208;SDS011;50527;52.414;13.226;2022-11-22T02:13:35;7.00;;;2.58;;
64208;SDS011;50527;52.414;13.226;2022-11-22T02:16:04;6.82;;;2.60;;
64208;SDS011;50527;52.414;13.226;2022-11-22T02:18:33;10.18;;;2.78;;
64208;SDS011;50527;52.414;13.226;2022-11-22T02:20:59;8.38;;;3.03;;
64208;SDS011;50527;52.414;13.226;2022-11-22T02:26:02;7.13;;;2.72;;
64208;SDS011;50527;52.414;13.226;2022-11-22T02:28:28;6.63;;;2.20;;
64208;SDS011;50527;52.414;13.226;2022-11-22T02:30:58;8.55;;;2.85;;
64208;SDS011;50527;52.414;13.226;2022-11-22T02:33:23;7.03;;;2.38;;
64208;SDS011;50527;52.414;13.226;2022-11-22T02:35:49;9.55;;;2.22;;
64208;SDS011;50527;52.414;13.226;2022-11-22T02:38:31;5.90;;;2.63;;
64208;SDS011;50527;52.414;13.226;2022-11-22T02:41:00;8.30;;;2.60;;
64208;SDS011;50527;52.414;13.226;2022-11-22T02:43:33;6.70;;;2.83;;
64208;SDS011;50527;52.414;13.226;2022-11-22T02:46:05;7.05;;;2.70;;
64208;SDS011;50527;52.414;13.226;2022-11-22T02:48:32;8.57;;;2.55;;
64208;SDS011;50527;52.414;13.226;2022-11-22T02:50:58;6.05;;;2.30;;
64208;SDS011;50527;52.414;13.226;2022-11-22T02:53:23;4.03;;;1.63;;
64208;SDS011;50527;52.414;13.226;2022-11-22T02:55:49;6.82;;;2.35;;
64208;SDS011;50527;52.414;13.226;2022-11-22T02:58:15;4.68;;;2.00;;
64208;SDS011;50527;52.414;13.226;2022-11-22T03:00:41;6.88;;;2.78;;
64208;SDS011;50527;52.414;13.226;2022-11-22T03:03:06;7.13;;;2.88;;
64208;SDS011;50527;52.414;13.226;2022-11-22T03:05:32;6.65;;;2.92;;
64208;SDS011;50527;52.414;13.226;2022-11-22T03:07:57;7.68;;;2.60;;
64208;SDS011;50527;52.414;13.226;2022-11-22T03:10:23;3.70;;;1.88;;
64208;SDS011;50527;52.414;13.226;2022-11-22T03:12:49;7.63;;;2.75;;
64208;SDS011;50527;52.414;13.226;2022-11-22T03:15:14;6.50;;;2.88;;
64208;SDS011;50527;52.414;13.226;2022-11-22T03:17:40;4.28;;;1.70;;
64208;SDS011;50527;52.414;13.226;2022-11-22T03:20:05;4.68;;;2.40;;
64208;SDS011;50527;52.414;13.226;2022-11-22T03:22:31;6.82;;;2.45;;
64208;SDS011;50527;52.414;13.226;2022-11-22T03:24:57;4.15;;;2.35;;
64208;SDS011;50527;52.414;13.226;2022-11-22T03:27:22;4.13;;;1.65;;
64208;SDS011;50527;52.414;13.226;2022-11-22T03:29:48;6.75;;;1.73;;
64208;SDS011;50527;52.414;13.226;2022-11-22T03:32:13;8.60;;;2.42;;
64208;SDS011;50527;52.414;13.226;2022-11-22T03:34:39;5.35;;;2.13;;
64208;SDS011;50527;52.414;13.226;2022-11-22T03:37:04;8.38;;;2.20;;
64208;SDS011;50527;52.414;13.226;2022-11-22T03:39:30;7.57;;;3.05;;
64208;SDS011;50527;52.414;13.226;2022-11-22T03:41:55;5.82;;;2.38;;
64208;SDS011;50527;52.414;13.226;2022-11-22T03:44:21;5.40;;;2.83;;
64208;SDS011;50527;52.414;13.226;2022-11-22T03:46:47;8.10;;;3.08;;
64208;SDS011;50527;52.414;13.226;2022-11-22T03:49:12;5.63;;;2.42;;
64208;SDS011;50527;52.414;13.226;2022-11-22T03:51:38;4.38;;;1.30;;
64208;SDS011;50527;52.414;13.226;2022-11-22T03:54:04;9.13;;;2.90;;
64208;SDS011;50527;52.414;13.226;2022-11-22T03:56:29;6.18;;;1.90;;
64208;SDS011;50527;52.414;13.226;2022-11-22T03:58:55;6.18;;;2.22;;
64208;SDS011;50527;52.414;13.226;2022-11-22T04:01:20;7.10;;;2.50;;
64208;SDS011;50527;52.414;13.226;2022-11-22T04:03:46;6.30;;;2.42;;
64208;SDS011;50527;52.414;13.226;2022-11-22T04:06:11;6.32;;;2.58;;
64208;SDS011;50527;52.414;13.226;2022-11-22T04:08:37;5.72;;;2.47;;
64208;SDS011;50527;52.414;13.226;2022-11-22T04:11:02;8.88;;;3.25;;
64208;SDS011;50527;52.414;13.226;2022-11-22T04:13:27;9.05;;;2.53;;
64208;SDS011;50527;52.414;13.226;2022-11-22T04:16:12;6.18;;;1.90;;
64208;SDS011;50527;52.414;13.226;2022-11-22T04:18:37;7.32;;;2.20;;
64208;SDS011;50527;52.414;13.226;2022-11-22T04:21:03;6.38;;;2.83;;
64208;SDS011;50527;52.414;13.226;2022-11-22T04:23:47;10.57;;;2.22;;
64208;SDS011;50527;52.414;13.226;2022-11-22T04:26:32;7.43;;;3.22;;
64208;SDS011;50527;52.414;13.226;2022-11-22T04:28:58;8.10;;;3.13;;
64208;SDS011;50527;52.414;13.226;2022-11-22T04:31:23;7.72;;;2.50;;
64208;SDS011;50527;52.414;13.226;2022-11-22T04:34:07;11.00;;;2.85;;
64208;SDS011;50527;52.414;13.226;2022-11-22T04:36:33;10.13;;;2.55;;
64208;SDS011;50527;52.414;13.226;2022-11-22T04:38:58;8.65;;;2.90;;
64208;SDS011;50527;52.414;13.226;2022-11-22T04:41:24;6.13;;;2.42;;
64208;SDS011;50527;52.414;13.226;2022-11-22T04:43:49;5.38;;;2.63;;
64208;SDS011;50527;52.414;13.226;2022-11-22T04:46:33;8.23;;;2.20;;
64208;SDS011;50527;52.414;13.226;2022-11-22T04:48:59;5.70;;;2.25;;
64208;SDS011;50527;52.414;13.226;2022-11-22T04:51:24;6.88;;;3.15;;
64208;SDS011;50527;52.414;13.226;2022-11-22T04:54:08;7.80;;;2.72;;
64208;SDS011;50527;52.414;13.226;2022-11-22T04:56:34;3.53;;;1.73;;
64208;SDS011;50527;52.414;13.226;2022-11-22T04:58:59;6.32;;;2.90;;
64208;SDS011;50527;52.414;13.226;2022-11-22T05:01:25;7.43;;;2.65;;
64208;SDS011;50527;52.414;13.226;2022-11-22T05:03:50;11.80;;;3.03;;
64208;SDS011;50527;52.414;13.226;2022-11-22T05:06:15;6.40;;;2.05;;
64208;SDS011;50527;52.414;13.226;2022-11-22T05:08:41;8.82;;;3.33;;
64208;SDS011;50527;52.414;13.226;2022-11-22T05:11:06;6.60;;;3.35;;
64208;SDS011;50527;52.414;13.226;2022-11-22T05:13:33;7.47;;;2.45;;
64208;SDS011;50527;52.414;13.226;2022-11-22T05:16:04;6.13;;;2.80;;
64208;SDS011;50527;52.414;13.226;2022-11-22T05:18:31;10.77;;;3.15;;
64208;SDS011;50527;52.414;13.226;2022-11-22T05:20:57;6.78;;;2.63;;
64208;SDS011;50527;52.414;13.226;2022-11-22T05:23:24;11.70;;;3.55;;
64208;SDS011;50527;52.414;13.226;2022-11-22T05:26:09;4.95;;;2.30;;
64208;SDS011;50527;52.414;13.226;2022-11-22T05:28:35;7.25;;;2.63;;
64208;SDS011;50527;52.414;13.226;2022-11-22T05:31:05;8.25;;;3.20;;
64208;SDS011;50527;52.414;13.226;2022-11-22T05:33:33;10.82;;;2.80;;
64208;SDS011;50527;52.414;13.226;2022-11-22T05:36:00;11.65;;;3.35;;
64208;SDS011;50527;52.414;13.226;2022-11-22T05:38:25;9.70;;;3.15;;
64208;SDS011;50527;52.414;13.226;2022-11-22T05:40:51;9.80;;;3.10;;
64208;SDS011;50527;52.414;13.226;2022-11-22T05:43:16;10.15;;;3.05;;
64208;SDS011;50527;52.414;13.226;2022-11-22T05:45:42;13.65;;;4.78;;
64208;SDS011;50527;52.414;13.226;2022-11-22T05:48:07;8.88;;;3.70;;
64208;SDS011;50527;52.414;13.226;2022-11-22T05:50:33;9.27;;;3.60;;
64208;SDS011;50527;52.414;13.226;2022-11-22T05:52:59;8.18;;;2.90;;
64208;SDS011;50527;52.414;13.226;2022-11-22T05:55:26;8.25;;;3.10;;
64208;SDS011;50527;52.414;13.226;2022-11-22T05:57:51;13.25;;;4.32;;
64208;SDS011;50527;52.414;13.226;2022-11-22T06:00:17;9.35;;;3.35;;
64208;SDS011;50527;52.414;13.226;2022-11-22T06:02:43;10.70;;;3.25;;
64208;SDS011;50527;52.414;13.226;2022-11-22T06:05:08;10.68;;;3.35;;
64208;SDS011;50527;52.414;13.226;2022-11-22T06:07:33;6.88;;;2.85;;
64208;SDS011;50527;52.414;13.226;2022-11-22T06:09:59;13.07;;;4.22;;
64208;SDS011;50527;52.414;13.226;2022-11-22T06:12:24;13.57;;;4.05;;
64208;SDS011;50527;52.414;13.226;2022-11-22T06:14:50;9.75;;;2.97;;
64208;SDS011;50527;52.414;13.226;2022-11-22T06:17:15;11.75;;;4.18;;
64208;SDS011;50527;52.414;13.226;2022-11-22T06:19:41;6.70;;;3.05;;
64208;SDS011;50527;52.414;13.226;2022-11-22T06:22:06;7.63;;;2.92;;
64208;SDS011;50527;52.414;13.226;2022-11-22T06:24:33;12.65;;;4.22;;
64208;SDS011;50527;52.414;13.226;2022-11-22T06:26:59;10.13;;;3.10;;
64208;SDS011;50527;52.414;13.226;2022-11-22T06:29:24;11.18;;;3.20;;
64208;SDS011;50527;52.414;13.226;2022-11-22T06:31:50;12.05;;;3.85;;
64208;SDS011;50527;52.414;13.226;2022-11-22T06:34:15;10.55;;;3.80;;
64208;SDS011;50527;52.414;13.226;2022-11-22T06:36:41;11.55;;;3.20;;
64208;SDS011;50527;52.414;13.226;2022-11-22T06:39:06;13.52;;;3.38;;
64208;SDS011;50527;52.414;13.226;2022-11-22T06:41:33;8.85;;;4.13;;
64208;SDS011;50527;52.414;13.226;2022-11-22T06:44:02;11.38;;;4.13;;
64208;SDS011;50527;52.414;13.226;2022-11-22T06:46:29;18.90;;;5.22;;
64208;SDS011;50527;52.414;13.226;2022-11-22T06:48:55;10.70;;;3.65;;
64208;SDS011;50527;52.414;13.226;2022-11-22T06:51:21;10.45;;;2.90;;
64208;SDS011;50527;52.414;13.226;2022-11-22T06:53:48;9.10;;;3.42;;
64208;SDS011;50527;52.414;13.226;2022-11-22T06:56:18;11.30;;;3.53;;
64208;SDS011;50527;52.414;13.226;2022-11-22T06:58:46;15.45;;;3.80;;
64208;SDS011;50527;52.414;13.226;2022-11-22T07:01:15;9.60;;;4.20;;
64208;SDS011;50527;52.414;13.226;2022-11-22T07:03:41;12.43;;;3.63;;
64208;SDS011;50527;52.414;13.226;2022-11-22T07:06:07;10.00;;;3.35;;
64208;SDS011;50527;52.414;13.226;2022-11-22T07:08:34;13.43;;;4.93;;
64208;SDS011;50527;52.414;13.226;2022-11-22T07:11:00;8.43;;;2.95;;
64208;SDS011;50527;52.414;13.226;2022-11-22T07:13:33;10.65;;;3.80;;
64208;SDS011;50527;52.414;13.226;2022-11-22T07:16:00;13.20;;;3.63;;
64208;SDS011;50527;52.414;13.226;2022-11-22T07:18:27;8.52;;;3.83;;
64208;SDS011;50527;52.414;13.226;2022-11-22T07:20:58;10.50;;;3.88;;
64208;SDS011;50527;52.414;13.226;2022-11-22T07:23:29;13.25;;;3.65;;
64208;SDS011;50527;52.414;13.226;2022-11-22T07:25:54;10.02;;;2.83;;
64208;SDS011;50527;52.414;13.226;2022-11-22T07:28:20;18.10;;;4.03;;
64208;SDS011;50527;52.414;13.226;2022-11-22T07:30:46;14.25;;;4.45;;
64208;SDS011;50527;52.414;13.226;2022-11-22T07:33:12;16.98;;;4.15;;
64208;SDS011;50527;52.414;13.226;2022-11-22T07:35:37;9.32;;;3.15;;
64208;SDS011;50527;52.414;13.226;2022-11-22T07:38:02;10.38;;;3.63;;
64208;SDS011;50527;52.414;13.226;2022-11-22T07:40:28;10.25;;;3.58;;
64208;SDS011;50527;52.414;13.226;2022-11-22T07:42:54;8.13;;;3.00;;
64208;SDS011;50527;52.414;13.226;2022-11-22T07:45:19;9.80;;;3.72;;
64208;SDS011;50527;52.414;13.226;2022-11-22T07:47:45;11.98;;;4.18;;
64208;SDS011;50527;52.414;13.226;2022-11-22T07:50:11;8.38;;;3.40;;
64208;SDS011;50527;52.414;13.226;2022-11-22T07:52:36;11.43;;;3.70;;
64208;SDS011;50527;52.414;13.226;2022-11-22T07:55:02;10.70;;;2.95;;
64208;SDS011;50527;52.414;13.226;2022-11-22T07:57:28;17.33;;;3.70;;
64208;SDS011;50527;52.414;13.226;2022-11-22T07:59:54;12.82;;;3.72;;
64208;SDS011;50527;52.414;13.226;2022-11-22T08:02:19;8.73;;;2.72;;
64208;SDS011;50527;52.414;13.226;2022-11-22T08:04:44;13.43;;;4.20;;
64208;SDS011;50527;52.414;13.226;2022-11-22T08:07:10;10.82;;;2.83;;
64208;SDS011;50527;52.414;13.226;2022-11-22T08:09:35;6.60;;;3.20;;
64208;SDS011;50527;52.414;13.226;2022-11-22T08:12:02;9.43;;;2.85;;
64208;SDS011;50527;52.414;13.226;2022-11-22T08:14:27;9.15;;;3.30;;
64208;SDS011;50527;52.414;13.226;2022-11-22T08:16:53;12.13;;;3.33;;
64208;SDS011;50527;52.414;13.226;2022-11-22T08:19:18;10.20;;;2.50;;
64208;SDS011;50527;52.414;13.226;2022-11-22T08:21:44;10.65;;;3.25;;
64208;SDS011;50527;52.414;13.226;2022-11-22T08:24:11;10.90;;;4.07;;
64208;SDS011;50527;52.414;13.226;2022-11-22T08:26:37;11.23;;;3.25;;
64208;SDS011;50527;52.414;13.226;2022-11-22T08:29:03;5.40;;;2.95;;
64208;SDS011;50527;52.414;13.226;2022-11-22T08:31:30;8.80;;;2.75;;
64208;SDS011;50527;52.414;13.226;2022-11-22T08:33:55;7.80;;;2.97;;
64208;SDS011;50527;52.414;13.226;2022-11-22T08:36:21;12.50;;;4.25;;
64208;SDS011;50527;52.414;13.226;2022-11-22T08:38:47;12.00;;;2.88;;
64208;SDS011;50527;52.414;13.226;2022-11-22T08:41:12;13.80;;;4.05;;
64208;SDS011;50527;52.414;13.226;2022-11-22T08:43:38;12.90;;;2.85;;
64208;SDS011;50527;52.414;13.226;2022-11-22T08:46:04;16.42;;;4.15;;
64208;SDS011;50527;52.414;13.226;2022-11-22T08:48:31;13.15;;;4.03;;
64208;SDS011;50527;52.414;13.226;2022-11-22T08:50:59;12.00;;;3.67;;
64208;SDS011;50527;52.414;13.226;2022-11-22T08:53:26;11.30;;;4.85;;
64208;SDS011;50527;52.414;13.226;2022-11-22T08:55:53;13.50;;;4.38;;
64208;SDS011;50527;52.414;13.226;2022-11-22T08:58:19;9.95;;;4.00;;
64208;SDS011;50527;52.414;13.226;2022-11-22T09:00:46;13.60;;;4.03;;
64208;SDS011;50527;52.414;13.226;2022-11-22T09:03:11;14.68;;;3.42;;
64208;SDS011;50527;52.414;13.226;2022-11-22T09:05:37;11.32;;;3.88;;
64208;SDS011;50527;52.414;13.226;2022-11-22T09:08:02;8.70;;;3.80;;
64208;SDS011;50527;52.414;13.226;2022-11-22T09:10:28;12.68;;;4.20;;
64208;SDS011;50527;52.414;13.226;2022-11-22T09:12:54;15.88;;;4.28;;
64208;SDS011;50527;52.414;13.226;2022-11-22T09:15:19;17.58;;;5.28;;
64208;SDS011;50527;52.414;13.226;2022-11-22T09:17:45;11.13;;;4.07;;
64208;SDS011;50527;52.414;13.226;2022-11-22T09:20:10;13.38;;;4.40;;
64208;SDS011;50527;52.414;13.226;2022-11-22T09:22:37;20.52;;;4.45;;
64208;SDS011;50527;52.414;13.226;2022-11-22T09:25:03;14.13;;;3.90;;
64208;SDS011;50527;52.414;13.226;2022-11-22T09:27:30;17.02;;;4.68;;
64208;SDS011;50527;52.414;13.226;2022-11-22T09:29:56;9.18;;;3.03;;
64208;SDS011;50527;52.414;13.226;2022-11-22T09:32:22;9.40;;;3.38;;
64208;SDS011;50527;52.414;13.226;2022-11-22T09:34:47;17.70;;;3.83;;
64208;SDS011;50527;52.414;13.226;2022-11-22T09:37:13;7.20;;;3.20;;
64208;SDS011;50527;52.414;13.226;2022-11-22T09:39:42;12.10;;;3.55;;
64208;SDS011;50527;52.414;13.226;2022-11-22T09:48:19;12.55;;;3.80;;
64208;SDS011;50527;52.414;13.226;2022-11-22T09:51:07;13.60;;;4.15;;
64208;SDS011;50527;52.414;13.226;2022-11-22T09:53:41;11.43;;;4.35;;
64208;SDS011;50527;52.414;13.226;2022-11-22T09:56:20;16.48;;;3.28;;
64208;SDS011;50527;52.414;13.226;2022-11-22T09:58:50;15.00;;;3.67;;
64208;SDS011;50527;52.414;13.226;2022-11-22T10:06:39;11.55;;;3.58;;
64208;SDS011;50527;52.414;13.226;2022-11-22T10:09:21;11.35;;;3.95;;
64208;SDS011;50527;52.414;13.226;2022-11-22T10:12:14;10.45;;;2.97;;
64208;SDS011;50527;52.414;13.226;2022-11-22T10:14:59;10.25;;;3.63;;
64208;SDS011;50527;52.414;13.226;2022-11-22T10:17:51;24.33;;;3.92;;
64208;SDS011;50527;52.414;13.226;2022-11-22T10:20:20;15.30;;;4.35;;
64208;SDS011;50527;52.414;13.226;2022-11-22T10:22:48;12.32;;;4.07;;
64208;SDS011;50527;52.414;13.226;2022-11-22T10:25:21;17.85;;;4.55;;
64208;SDS011;50527;52.414;13.226;2022-11-22T10:28:04;17.38;;;4.13;;
64208;SDS011;50527;52.414;13.226;2022-11-22T10:30:42;9.75;;;3.75;;
64208;SDS011;50527;52.414;13.226;2022-11-22T10:33:23;15.38;;;4.15;;
64208;SDS011;50527;52.414;13.226;2022-11-22T10:41:20;13.38;;;4.38;;
64208;SDS011;50527;52.414;13.226;2022-11-22T10:47:05;13.02;;;3.80;;
64208;SDS011;50527;52.414;13.226;2022-11-22T10:49:50;11.90;;;3.97;;
64208;SDS011;50527;52.414;13.226;2022-11-22T10:58:00;11.18;;;3.05;;
64208;SDS011;50527;52.414;13.226;2022-11-22T11:00:26;13.45;;;4.13;;
64208;SDS011;50527;52.414;13.226;2022-11-22T11:05:29;12.75;;;4.35;;
64208;SDS011;50527;52.414;13.226;2022-11-22T11:08:16;15.10;;;3.92;;
64208;SDS011;50527;52.414;13.226;2022-11-22T11:11:04;13.25;;;3.65;;
64208;SDS011;50527;52.414;13.226;2022-11-22T11:13:34;11.43;;;3.55;;
64208;SDS011;50527;52.414;13.226;2022-11-22T11:21:26;19.10;;;5.22;;
64208;SDS011;50527;52.414;13.226;2022-11-22T11:23:51;11.40;;;3.65;;
64208;SDS011;50527;52.414;13.226;2022-11-22T11:28:43;15.40;;;4.93;;
64208;SDS011;50527;52.414;13.226;2022-11-22T11:31:09;18.30;;;4.70;;
64208;SDS011;50527;52.414;13.226;2022-11-22T11:33:37;15.10;;;3.55;;
64208;SDS011;50527;52.414;13.226;2022-11-22T11:36:05;14.90;;;3.30;;
64208;SDS011;50527;52.414;13.226;2022-11-22T11:38:35;14.00;;;4.20;;
64208;SDS011;50527;52.414;13.226;2022-11-22T11:41:20;19.75;;;4.40;;
64208;SDS011;50527;52.414;13.226;2022-11-22T11:43:53;12.65;;;4.85;;
64208;SDS011;50527;52.414;13.226;2022-11-22T11:46:27;17.55;;;4.20;;
64208;SDS011;50527;52.414;13.226;2022-11-22T11:48:54;14.50;;;4.93;;
64208;SDS011;50527;52.414;13.226;2022-11-22T11:51:48;15.10;;;4.78;;
64208;SDS011;50527;52.414;13.226;2022-11-22T11:54:19;12.88;;;3.20;;
64208;SDS011;50527;52.414;13.226;2022-11-22T11:56:56;18.48;;;4.88;;
64208;SDS011;50527;52.414;13.226;2022-11-22T11:59:31;13.13;;;3.75;;
64208;SDS011;50527;52.414;13.226;2022-11-22T12:02:09;8.75;;;3.65;;
64208;SDS011;50527;52.414;13.226;2022-11-22T12:07:36;18.20;;;4.57;;
64208;SDS011;50527;52.414;13.226;2022-11-22T12:13:14;9.82;;;3.08;;
64208;SDS011;50527;52.414;13.226;2022-11-22T12:18:59;11.30;;;3.95;;
64208;SDS011;50527;52.414;13.226;2022-11-22T12:21:53;11.30;;;3.53;;
64208;SDS011;50527;52.414;13.226;2022-11-22T12:24:42;12.80;;;3.75;;
64208;SDS011;50527;52.414;13.226;2022-11-22T12:27:11;15.82;;;3.90;;
64208;SDS011;50527;52.414;13.226;2022-11-22T12:29:37;10.80;;;3.63;;
64208;SDS011;50527;52.414;13.226;2022-11-22T12:32:15;16.73;;;4.32;;
64208;SDS011;50527;52.414;13.226;2022-11-22T12:34:53;14.63;;;3.72;;
64208;SDS011;50527;52.414;13.226;2022-11-22T12:37:36;15.73;;;4.68;;
64208;SDS011;50527;52.414;13.226;2022-11-22T12:40:11;7.05;;;3.47;;
64208;SDS011;50527;52.414;13.226;2022-11-22T12:42:44;12.18;;;4.10;;
64208;SDS011;50527;52.414;13.226;2022-11-22T12:45:20;12.02;;;4.13;;
64208;SDS011;50527;52.414;13.226;2022-11-22T12:47:52;17.00;;;4.80;;
64208;SDS011;50527;52.414;13.226;2022-11-22T12:53:09;13.45;;;4.13;;
64208;SDS011;50527;52.414;13.226;2022-11-22T12:58:45;13.82;;;3.90;;
64208;SDS011;50527;52.414;13.226;2022-11-22T13:06:41;12.88;;;4.30;;
64208;SDS011;50527;52.414;13.226;2022-11-22T13:09:20;11.00;;;4.47;;
64208;SDS011;50527;52.414;13.226;2022-11-22T13:11:54;17.92;;;4.32;;
64208;SDS011;50527;52.414;13.226;2022-11-22T13:14:29;11.57;;;4.03;;
64208;SDS011;50527;52.414;13.226;2022-11-22T13:17:14;13.20;;;3.70;;
64208;SDS011;50527;52.414;13.226;2022-11-22T13:19:43;10.77;;;4.45;;
64208;SDS011;50527;52.414;13.226;2022-11-22T13:22:37;10.35;;;3.67;;
64208;SDS011;50527;52.414;13.226;2022-11-22T13:28:00;10.35;;;3.75;;
64208;SDS011;50527;52.414;13.226;2022-11-22T13:30:29;10.80;;;3.85;;
64208;SDS011;50527;52.414;13.226;2022-11-22T13:32:56;13.50;;;3.90;;
64208;SDS011;50527;52.414;13.226;2022-11-22T13:35:25;13.90;;;4.75;;
64208;SDS011;50527;52.414;13.226;2022-11-22T13:37:55;9.45;;;3.83;;
64208;SDS011;50527;52.414;13.226;2022-11-22T13:40:25;14.35;;;4.60;;
64208;SDS011;50527;52.414;13.226;2022-11-22T13:45:45;18.52;;;4.32;;
64208;SDS011;50527;52.414;13.226;2022-11-22T13:48:12;9.88;;;3.42;;
64208;SDS011;50527;52.414;13.226;2022-11-22T13:53:20;15.02;;;4.80;;
64208;SDS011;50527;52.414;13.226;2022-11-22T13:55:48;12.07;;;4.32;;
64208;SDS011;50527;52.414;13.226;2022-11-22T14:00:48;14.50;;;4.45;;
64208;SDS011;50527;52.414;13.226;2022-11-22T14:03:22;17.98;;;4.85;;
64208;SDS011;50527;52.414;13.226;2022-11-22T14:06:21;11.82;;;3.40;;
64208;SDS011;50527;52.414;13.226;2022-11-22T14:12:02;14.20;;;3.90;;
64208;SDS011;50527;52.414;13.226;2022-11-22T14:14:49;16.98;;;4.45;;
64208;SDS011;50527;52.414;13.226;2022-11-22T14:17:52;25.42;;;5.10;;
64208;SDS011;50527;52.414;13.226;2022-11-22T14:20:54;11.43;;;3.97;;
64208;SDS011;50527;52.414;13.226;2022-11-22T14:31:13;15.27;;;4.82;;
64208;SDS011;50527;52.414;13.226;2022-11-22T14:34:14;15.02;;;4.78;;
64208;SDS011;50527;52.414;13.226;2022-11-22T14:36:40;14.27;;;4.00;;
64208;SDS011;50527;52.414;13.226;2022-11-22T14:39:48;11.25;;;4.32;;
64208;SDS011;50527;52.414;13.226;2022-11-22T14:47:56;14.63;;;4.07;;
64208;SDS011;50527;52.414;13.226;2022-11-22T14:53:18;14.27;;;4.25;;
64208;SDS011;50527;52.414;13.226;2022-11-22T14:58:57;10.45;;;4.05;;
64208;SDS011;50527;52.414;13.226;2022-11-22T15:01:50;15.23;;;4.28;;
64208;SDS011;50527;52.414;13.226;2022-11-22T15:04:48;13.85;;;4.43;;
64208;SDS011;50527;52.414;13.226;2022-11-22T15:07:31;11.48;;;4.30;;
64208;SDS011;50527;52.414;13.226;2022-11-22T15:15:38;11.43;;;3.53;;
64208;SDS011;50527;52.414;13.226;2022-11-22T15:18:12;11.95;;;3.92;;
64208;SDS011;50527;52.414;13.226;2022-11-22T15:20:41;15.73;;;3.97;;
64208;SDS011;50527;52.414;13.226;2022-11-22T15:23:20;12.35;;;4.10;;
64208;SDS011;50527;52.414;13.226;2022-11-22T15:25:48;9.30;;;3.38;;
64208;SDS011;50527;52.414;13.226;2022-11-22T15:28:44;9.57;;;3.80;;
64208;SDS011;50527;52.414;13.226;2022-11-22T15:31:15;9.98;;;3.15;;
64208;SDS011;50527;52.414;13.226;2022-11-22T15:33:45;10.68;;;3.72;;
64208;SDS011;50527;52.414;13.226;2022-11-22T15:36:23;12.52;;;4.38;;
64208;SDS011;50527;52.414;13.226;2022-11-22T15:39:12;12.65;;;4.40;;
64208;SDS011;50527;52.414;13.226;2022-11-22T15:41:39;13.63;;;4.65;;
64208;SDS011;50527;52.414;13.226;2022-11-22T15:44:06;13.25;;;4.47;;
64208;SDS011;50527;52.414;13.226;2022-11-22T15:46:36;11.95;;;3.90;;
64208;SDS011;50527;52.414;13.226;2022-11-22T15:49:03;12.45;;;3.85;;
64208;SDS011;50527;52.414;13.226;2022-11-22T15:51:30;15.88;;;5.10;;
64208;SDS011;50527;52.414;13.226;2022-11-22T15:56:41;13.40;;;4.45;;
64208;SDS011;50527;52.414;13.226;2022-11-22T15:59:19;16.10;;;4.55;;
64208;SDS011;50527;52.414;13.226;2022-11-22T16:01:48;13.38;;;4.68;;
64208;SDS011;50527;52.414;13.226;2022-11-22T16:04:20;13.40;;;4.40;;
64208;SDS011;50527;52.414;13.226;2022-11-22T16:06:49;14.52;;;4.97;;
64208;SDS011;50527;52.414;13.226;2022-11-22T16:09:26;15.48;;;4.43;;
64208;SDS011;50527;52.414;13.226;2022-11-22T16:11:58;15.38;;;4.45;;
64208;SDS011;50527;52.414;13.226;2022-11-22T16:14:37;14.60;;;4.50;;
64208;SDS011;50527;52.414;13.226;2022-11-22T16:17:29;12.77;;;4.65;;
64208;SDS011;50527;52.414;13.226;2022-11-22T16:23:03;9.60;;;4.10;;
64208;SDS011;50527;52.414;13.226;2022-11-22T16:25:30;12.70;;;4.97;;
64208;SDS011;50527;52.414;13.226;2022-11-22T16:27:57;15.38;;;5.18;;
64208;SDS011;50527;52.414;13.226;2022-11-22T16:30:43;13.30;;;4.55;;
64208;SDS011;50527;52.414;13.226;2022-11-22T16:33:09;11.15;;;4.32;;